createdAt,value
2022-10-10T00:04:02.514Z,101207.19
2022-10-10T00:09:07.773Z,101204.65
2022-10-10T00:14:11.025Z,101203.17
2022-10-10T00:19:14.528Z,101201.98
2022-10-10T00:24:17.739Z,101198.95
2022-10-10T00:29:22.133Z,101187.11
2022-10-10T00:34:30.264Z,101187.45
2022-10-10T00:39:33.980Z,101180.59
2022-10-10T00:44:37.180Z,101175.80
2022-10-10T00:49:43.626Z,101168.91
2022-10-10T00:54:46.946Z,101172.49
2022-10-10T00:59:54.816Z,101159.89
2022-10-10T01:04:58.462Z,101154.13
2022-10-10T01:10:12.627Z,101149.05
2022-10-10T01:15:40.789Z,101140.82
2022-10-10T01:20:50.234Z,101140.90
2022-10-10T01:25:56.627Z,101132.23
2022-10-10T01:31:05.636Z,101125.54
2022-10-10T01:36:34.131Z,101121.73
2022-10-10T01:41:41.948Z,101118.20
2022-10-10T01:46:45.221Z,101111.58
2022-10-10T01:52:08.429Z,101094.33
2022-10-10T01:57:21.183Z,101095.73
2022-10-10T02:03:02.642Z,101095.11
2022-10-10T02:08:11.505Z,101083.48
2022-10-10T02:13:16.270Z,101084.88
2022-10-10T02:18:25.818Z,101077.42
2022-10-10T02:23:30.366Z,101076.58
2022-10-10T02:28:58.144Z,101069.89
2022-10-10T02:34:14.458Z,101070.20
2022-10-10T02:39:19.387Z,101062.94
2022-10-10T02:44:23.856Z,101047.55
2022-10-10T02:49:30.449Z,101042.95
2022-10-10T02:54:33.720Z,101041.05
2022-10-10T02:59:36.984Z,101030.93
2022-10-10T03:04:40.490Z,101027.12
2022-10-10T03:09:46.914Z,101027.17
2022-10-10T03:14:56.306Z,101022.31
2022-10-10T03:20:03.151Z,101021.98
2022-10-10T03:25:16.416Z,101015.44
2022-10-10T03:30:22.674Z,101008.54
2022-10-10T03:35:31.631Z,101004.84
2022-10-10T03:40:46.900Z,101003.56
2022-10-10T03:46:15.772Z,100994.78
2022-10-10T03:51:21.067Z,100985.88
2022-10-10T03:56:36.547Z,100983.25
2022-10-10T04:01:40.370Z,100982.42
2022-10-10T04:06:47.347Z,100975.20
2022-10-10T04:11:51.838Z,100969.20
2022-10-10T04:16:57.765Z,100964.65
2022-10-10T04:22:03.312Z,100957.88
2022-10-10T04:27:06.503Z,100948.80
2022-10-10T04:32:11.332Z,100948.69
2022-10-10T04:37:15.089Z,100948.31
2022-10-10T04:42:18.203Z,100944.94
2022-10-10T04:47:21.441Z,100946.30
2022-10-10T04:52:24.704Z,100941.69
2022-10-10T04:57:27.946Z,100940.57
2022-10-10T05:02:32.060Z,100936.42
2022-10-10T05:07:35.295Z,100939.29
2022-10-10T05:12:38.461Z,100939.58
2022-10-10T05:17:41.831Z,100932.90
2022-10-10T05:22:44.997Z,100925.84
2022-10-10T05:27:48.275Z,100924.60
2022-10-10T05:32:51.559Z,100925.80
2022-10-10T05:38:00.101Z,100923.58
2022-10-10T05:43:03.392Z,100921.21
2022-10-10T05:48:06.613Z,100922.89
2022-10-10T05:53:09.748Z,100925.27
2022-10-10T05:58:16.229Z,100923.77
2022-10-10T06:03:19.527Z,100919.84
2022-10-10T06:08:22.860Z,100914.98
2022-10-10T06:13:26.039Z,100908.17
2022-10-10T06:18:29.382Z,100907.28
2022-10-10T06:23:39.746Z,100913.70
2022-10-10T06:28:43.747Z,100911.77
2022-10-10T06:33:49.905Z,100913.02
2022-10-10T06:38:53.883Z,100911.88
2022-10-10T06:43:59.894Z,100908.27
2022-10-10T06:49:05.349Z,100903.52
2022-10-10T06:54:16.493Z,100900.02
2022-10-10T06:59:22.476Z,100899.96
2022-10-10T07:04:29.422Z,100898.95
2022-10-10T07:09:34.761Z,100898.38
2022-10-10T07:14:38.791Z,100894.54
2022-10-10T07:19:45.753Z,100892.45
2022-10-10T07:24:57.954Z,100890.88
2022-10-10T07:30:04.002Z,100881.91
2022-10-10T07:35:12.613Z,100889.77
2022-10-10T07:40:17.122Z,100890.83
2022-10-10T07:45:23.954Z,100890.76
2022-10-10T07:50:27.474Z,100884.50
2022-10-10T07:55:31.318Z,100880.34
2022-10-10T08:00:36.321Z,100881.70
2022-10-10T08:05:44.370Z,100875.14
2022-10-10T08:10:48.888Z,100867.98
2022-10-10T08:15:55.480Z,100864.36
2022-10-10T08:21:06.953Z,100858.41
2022-10-10T08:26:15.207Z,100846.64
2022-10-10T08:31:23.317Z,100841.86
2022-10-10T08:36:31.198Z,100834.52
2022-10-10T08:42:02.223Z,100837.33
2022-10-10T08:47:30.906Z,100837.80
2022-10-10T08:52:51.403Z,100836.02
2022-10-10T08:58:01.611Z,100829.17
2022-10-10T09:03:16.480Z,100819.58
2022-10-10T09:08:39.932Z,100812.57
2022-10-10T09:13:58.876Z,100803.36
2022-10-10T09:19:28.978Z,100791.95
2022-10-10T09:24:48.179Z,100786.91
2022-10-10T09:30:07.638Z,100787.27
2022-10-10T09:35:27.779Z,100785.63
2022-10-10T09:40:38.917Z,100779.70
2022-10-10T09:45:49.311Z,100772.14
2022-10-10T09:50:53.594Z,100767.71
2022-10-10T09:55:59.354Z,100757.44
2022-10-10T10:01:21.476Z,100755.80
2022-10-10T10:06:31.257Z,100750.98
2022-10-10T10:11:40.581Z,100749.23
2022-10-10T10:16:44.136Z,100746.94
2022-10-10T10:21:52.125Z,100738.74
2022-10-10T10:27:34.049Z,100736.65
2022-10-10T10:33:28.898Z,100732.23
2022-10-10T10:38:38.336Z,100724.71
2022-10-10T10:44:08.025Z,100712.41
2022-10-10T10:49:17.939Z,100707.18
2022-10-10T10:54:40.753Z,100697.33
2022-10-10T11:00:22.344Z,100689.25
2022-10-10T11:05:36.772Z,100681.60
2022-10-10T11:11:10.892Z,100676.95
2022-10-10T11:16:46.868Z,100670.42
2022-10-10T11:21:51.112Z,100663.83
2022-10-10T11:26:57.580Z,100656.66
2022-10-10T11:32:16.227Z,100641.04
2022-10-10T11:37:26.479Z,100611.27
2022-10-10T11:42:43.604Z,100598.35
2022-10-10T11:47:56.019Z,100601.95
2022-10-10T11:53:06.788Z,100597.47
2022-10-10T11:58:10.599Z,100587.73
2022-10-10T12:03:19.885Z,100582.67
2022-10-10T12:08:29.442Z,100569.81
2022-10-10T12:13:34.920Z,100558.03
2022-10-10T12:19:06.571Z,100547.94
2022-10-10T12:24:14.544Z,100539.55
2022-10-10T12:29:55.966Z,100536.44
2022-10-10T12:35:01.345Z,100526.70
2022-10-10T12:40:08.255Z,100516.89
2022-10-10T12:45:30.678Z,100507.98
2022-10-10T12:50:43.220Z,100501.95
2022-10-10T12:55:51.038Z,100498.52
2022-10-10T13:00:59.270Z,100495.99
2022-10-10T13:06:11.357Z,100486.25
2022-10-10T13:11:17.736Z,100479.91
2022-10-10T13:16:32.595Z,100483.58
2022-10-10T13:21:37.644Z,100472.75
2022-10-10T13:26:46.113Z,100462.55
2022-10-10T13:31:51.787Z,100449.80
2022-10-10T13:36:57.188Z,100448.85
2022-10-10T13:42:00.569Z,100448.54
2022-10-10T13:47:38.318Z,100444.04
2022-10-10T13:52:42.373Z,100453.59
2022-10-10T13:57:48.129Z,100455.77
2022-10-10T14:02:51.389Z,100451.44
2022-10-10T14:07:55.405Z,100445.92
2022-10-10T14:12:59.963Z,100444.17
2022-10-10T14:18:10.817Z,100441.41
2022-10-10T14:23:14.349Z,100441.21
2022-10-10T14:28:37.785Z,100427.49
2022-10-10T14:33:41.260Z,100424.11
2022-10-10T14:38:44.580Z,100428.02
2022-10-10T14:43:47.882Z,100434.63
2022-10-10T14:48:51.120Z,100427.91
2022-10-10T14:54:11.864Z,100418.89
2022-10-10T14:59:47.766Z,100419.64
2022-10-10T15:04:52.242Z,100421.65
2022-10-10T15:15:22.789Z,100435.35
2022-10-10T15:20:37.702Z,100432.32
2022-10-10T15:25:47.404Z,100425.92
2022-10-10T15:30:58.625Z,100432.61
2022-10-10T15:36:12.279Z,100432.20
2022-10-10T15:41:26.658Z,100424.16
2022-10-10T15:46:40.960Z,100424.79
2022-10-10T15:51:46.742Z,100433.05
2022-10-10T15:56:54.691Z,100434.53
2022-10-10T16:02:03.533Z,100424.44
2022-10-10T16:07:24.504Z,100432.72
2022-10-10T16:12:30.349Z,100429.34
2022-10-10T16:17:33.910Z,100433.27
2022-10-10T16:22:37.413Z,100435.42
2022-10-10T16:27:42.572Z,100440.21
2022-10-10T16:32:46.005Z,100442.21
2022-10-10T16:37:49.836Z,100440.52
2022-10-10T16:42:56.713Z,100443.39
2022-10-10T16:48:11.940Z,100448.52
2022-10-10T16:53:18.055Z,100445.98
2022-10-10T16:58:21.287Z,100442.48
2022-10-10T17:03:29.579Z,100441.42
2022-10-10T17:08:37.226Z,100440.75
2022-10-10T17:13:41.908Z,100446.11
2022-10-10T17:18:45.291Z,100447.29
2022-10-10T17:23:49.455Z,100448.87
2022-10-10T17:29:01.019Z,100453.77
2022-10-10T17:34:07.781Z,100456.23
2022-10-10T17:39:11.028Z,100454.43
2022-10-10T17:44:14.269Z,100454.58
2022-10-10T17:49:20.032Z,100456.85
2022-10-10T17:54:25.677Z,100454.32
2022-10-10T17:59:33.758Z,100454.45
2022-10-10T18:04:47.456Z,100450.94
2022-10-10T18:09:56.428Z,100449.80
2022-10-10T18:15:02.485Z,100448.06
2022-10-10T18:20:06.356Z,100454.18
2022-10-10T18:25:10.002Z,100457.15
2022-10-10T18:30:16.998Z,100458.17
2022-10-10T18:35:20.732Z,100456.42
2022-10-10T18:40:25.350Z,100456.89
2022-10-10T18:51:17.148Z,100458.02
2022-10-10T18:56:25.743Z,100457.84
2022-10-10T19:01:36.588Z,100457.70
2022-10-10T19:06:56.010Z,100460.20
2022-10-10T19:12:08.053Z,100462.71
2022-10-10T19:17:16.400Z,100463.88
2022-10-10T19:22:22.855Z,100460.65
2022-10-10T19:27:28.312Z,100464.49
2022-10-10T19:32:44.489Z,100459.88
2022-10-10T19:37:57.464Z,100458.03
2022-10-10T19:43:01.113Z,100458.43
2022-10-10T19:48:06.967Z,100459.52
2022-10-10T19:53:17.969Z,100459.10
2022-10-10T19:58:22.344Z,100466.65
2022-10-10T20:03:28.092Z,100469.08
2022-10-10T20:08:34.301Z,100472.70
2022-10-10T20:13:41.632Z,100476.76
2022-10-10T20:18:48.065Z,100476.25
2022-10-10T20:24:03.568Z,100477.60
2022-10-10T20:29:11.348Z,100482.87
2022-10-10T20:34:28.665Z,100483.81
2022-10-10T20:39:40.107Z,100484.35
2022-10-10T20:44:46.627Z,100485.45
2022-10-10T20:49:56.377Z,100489.17
2022-10-10T20:55:01.401Z,100496.10
2022-10-10T21:00:11.472Z,100498.83
2022-10-10T21:05:22.760Z,100497.79
2022-10-10T21:10:28.108Z,100500.70
2022-10-10T21:15:34.171Z,100505.08
2022-10-10T21:20:37.486Z,100509.66
2022-10-10T21:25:40.804Z,100508.54
2022-10-10T21:30:51.738Z,100514.64
2022-10-10T21:35:58.062Z,100516.38
2022-10-10T21:41:06.551Z,100519.89
2022-10-10T21:46:13.512Z,100522.91
2022-10-10T21:51:19.963Z,100526.18
2022-10-10T21:56:24.149Z,100528.85
2022-10-10T22:01:33.473Z,100528.16
2022-10-10T22:06:39.507Z,100538.48
2022-10-10T22:11:44.733Z,100542.94
2022-10-10T22:16:50.232Z,100543.71
2022-10-10T22:21:53.791Z,100548.05
2022-10-10T22:27:05.254Z,100554.44
2022-10-10T22:32:08.537Z,100556.15
2022-10-10T22:37:11.839Z,100560.86
2022-10-10T22:42:15.590Z,100559.80
2022-10-10T22:47:18.951Z,100562.59
2022-10-10T22:52:22.548Z,100562.40
2022-10-10T22:57:27.764Z,100559.04
2022-10-10T23:02:34.109Z,100560.70
2022-10-10T23:07:37.478Z,100567.98
2022-10-10T23:12:41.381Z,100568.60
2022-10-10T23:18:06.170Z,100572.84
2022-10-10T23:23:12.267Z,100578.80
2022-10-10T23:28:16.402Z,100580.31
2022-10-10T23:33:19.654Z,100584.08
2022-10-10T23:38:22.811Z,100582.95
2022-10-10T23:43:26.560Z,100587.08
2022-10-10T23:48:30.147Z,100588.77
2022-10-10T23:53:34.630Z,100594.67
2022-10-10T23:58:38.633Z,100597.11
